Time;durP1;ratioP1;P1;durP2;ratioP2;P2;SDS_P1;SDS_P2;PMS_P1;PMS_P2;Temp;Humidity;BMP_temperature;BMP_pressure;BME280_temperature;BME280_humidity;BME280_pressure;Samples;Min_cycle;Max_cycle;Signal;HPM_P1;HPM_P2
2024/01/11 00:00:26;;;;;;;168.52;74.50;;;;;;;;;;5054872;28;20534;-62
2024/01/11 00:02:52;;;;;;;166.63;73.97;;;;;;;;;;5054993;28;20028;-62
2024/01/11 00:05:17;;;;;;;168.20;76.88;;;;;;;;;;5053764;28;20400;-65
2024/01/11 00:07:44;;;;;;;171.32;77.82;;;;;;;;;;5055543;28;20063;-65
2024/01/11 00:10:09;;;;;;;180.15;79.90;;;;;;;;;;5056436;28;20028;-65
2024/01/11 00:12:35;;;;;;;190.32;80.15;;;;;;;;;;5056600;28;20037;-66
2024/01/11 00:15:00;;;;;;;190.38;81.88;;;;;;;;;;5056514;28;20455;-64
2024/01/11 00:17:29;;;;;;;190.82;81.20;;;;;;;;;;5056520;28;20064;-65
2024/01/11 00:19:55;;;;;;;196.05;83.97;;;;;;;;;;5056349;28;20021;-65
2024/01/11 00:22:28;;;;;;;182.60;78.95;;;;;;;;;;5056128;28;20040;-63
2024/01/11 00:24:53;;;;;;;165.77;71.53;;;;;;;;;;5056460;28;20033;-63
2024/01/11 00:27:20;;;;;;;160.63;71.38;;;;;;;;;;5055610;28;20055;-65
2024/01/11 00:29:45;;;;;;;155.18;71.13;;;;;;;;;;5056263;28;20040;-64
2024/01/11 00:32:20;;;;;;;145.90;66.05;;;;;;;;;;5056169;28;20029;-64
2024/01/11 00:34:46;;;;;;;154.23;67.32;;;;;;;;;;5056176;28;20037;-64
2024/01/11 00:37:11;;;;;;;143.95;63.70;;;;;;;;;;5056457;28;20429;-63
2024/01/11 00:39:37;;;;;;;154.27;68.10;;;;;;;;;;5056066;28;20029;-63
2024/01/11 00:42:11;;;;;;;146.32;65.45;;;;;;;;;;5055696;28;20037;-63
2024/01/11 00:44:36;;;;;;;149.60;63.35;;;;;;;;;;5056295;28;20555;-63
2024/01/11 00:47:06;;;;;;;127.95;57.88;;;;;;;;;;5055095;28;20124;-63
2024/01/11 00:49:31;;;;;;;127.88;57.95;;;;;;;;;;5056074;28;20028;-61
2024/01/11 00:51:57;;;;;;;126.70;60.50;;;;;;;;;;5055896;28;20083;-61
2024/01/11 00:54:24;;;;;;;129.13;59.92;;;;;;;;;;5055913;28;20107;-61
2024/01/11 00:56:52;;;;;;;132.52;59.72;;;;;;;;;;5055699;28;20029;-61
2024/01/11 00:59:17;;;;;;;145.40;67.35;;;;;;;;;;5054500;28;20029;-61
2024/01/11 01:01:49;;;;;;;139.52;65.95;;;;;;;;;;5055852;28;20036;-63
2024/01/11 01:04:16;;;;;;;138.35;63.58;;;;;;;;;;5055394;28;20530;-61
2024/01/11 01:06:42;;;;;;;135.95;64.80;;;;;;;;;;5037487;28;20032;-60
2024/01/11 01:09:11;;;;;;;129.07;62.15;;;;;;;;;;5055653;28;20028;-61
2024/01/11 01:11:36;;;;;;;133.43;63.92;;;;;;;;;;5055503;28;20481;-61
2024/01/11 01:14:03;;;;;;;143.15;68.97;;;;;;;;;;5055511;28;20035;-62
2024/01/11 01:16:28;;;;;;;149.02;73.72;;;;;;;;;;5066215;23;20429;-61
2024/01/11 01:18:54;;;;;;;146.65;70.40;;;;;;;;;;5015341;28;20040;-65
2024/01/11 01:21:19;;;;;;;154.15;73.30;;;;;;;;;;5015361;28;20029;-65
2024/01/11 01:23:44;;;;;;;155.45;72.13;;;;;;;;;;5015204;28;20068;-65
2024/01/11 01:26:10;;;;;;;138.18;66.47;;;;;;;;;;5013869;28;20026;-65
2024/01/11 01:28:36;;;;;;;137.10;63.95;;;;;;;;;;5046660;28;20060;-63
2024/01/11 01:31:01;;;;;;;145.27;68.88;;;;;;;;;;5029315;28;20065;-63
2024/01/11 01:33:26;;;;;;;143.45;68.68;;;;;;;;;;5013925;28;20037;-63
2024/01/11 01:35:53;;;;;;;137.68;62.35;;;;;;;;;;5029300;28;20401;-63
2024/01/11 01:38:18;;;;;;;138.15;66.45;;;;;;;;;;5012973;28;20029;-63
2024/01/11 01:40:45;;;;;;;142.82;64.78;;;;;;;;;;5045718;28;20112;-63
2024/01/11 01:43:12;;;;;;;138.48;65.32;;;;;;;;;;5014240;28;20038;-63
2024/01/11 01:45:39;;;;;;;136.65;67.30;;;;;;;;;;5014257;28;20041;-63
2024/01/11 01:48:04;;;;;;;142.50;66.22;;;;;;;;;;5012795;28;20477;-62
2024/01/11 01:50:30;;;;;;;144.25;66.43;;;;;;;;;;4996273;28;20087;-64
2024/01/11 01:52:56;;;;;;;150.75;68.78;;;;;;;;;;5013790;28;20053;-64
2024/01/11 01:55:22;;;;;;;143.95;68.35;;;;;;;;;;5014035;28;20084;-64
2024/01/11 01:57:48;;;;;;;156.23;70.88;;;;;;;;;;5014132;28;20041;-65
2024/01/11 02:00:16;;;;;;;144.35;69.95;;;;;;;;;;5014118;28;20025;-65
2024/01/11 02:02:45;;;;;;;161.90;74.47;;;;;;;;;;5014421;28;20030;-65
2024/01/11 02:05:16;;;;;;;160.43;73.57;;;;;;;;;;5014611;28;20380;-65
2024/01/11 02:07:55;;;;;;;160.68;73.88;;;;;;;;;;5046077;23;20367;-60
2024/01/11 02:10:23;;;;;;;155.77;71.97;;;;;;;;;;5030613;23;20111;-60
2024/01/11 02:13:15;;;;;;;143.75;69.78;;;;;;;;;;5053148;23;20436;-60
2024/01/11 02:16:01;;;;;;;151.93;70.20;;;;;;;;;;5045956;23;20467;-63
2024/01/11 02:18:28;;;;;;;152.57;73.15;;;;;;;;;;4973852;28;20442;-64
2024/01/11 02:20:53;;;;;;;157.93;74.93;;;;;;;;;;4975737;28;20113;-64
2024/01/11 02:23:21;;;;;;;155.00;71.82;;;;;;;;;;4975488;28;20058;-64
2024/01/11 02:25:46;;;;;;;156.25;71.90;;;;;;;;;;4975172;28;20066;-60
2024/01/11 02:28:12;;;;;;;156.00;71.43;;;;;;;;;;4975404;28;20062;-60
2024/01/11 02:30:37;;;;;;;152.63;69.68;;;;;;;;;;4975070;28;20494;-60
2024/01/11 02:33:05;;;;;;;144.32;69.55;;;;;;;;;;4990570;28;20053;-60
2024/01/11 02:35:31;;;;;;;147.88;69.47;;;;;;;;;;4974771;28;20034;-64
2024/01/11 02:37:57;;;;;;;162.35;74.35;;;;;;;;;;4975255;28;20030;-64
2024/01/11 02:40:31;;;;;;;155.07;71.43;;;;;;;;;;4974943;28;20038;-62
2024/01/11 02:42:56;;;;;;;142.13;69.43;;;;;;;;;;4975160;28;20026;-62
2024/01/11 02:45:23;;;;;;;149.90;71.18;;;;;;;;;;4989806;28;20039;-62
2024/01/11 02:47:58;;;;;;;155.00;73.20;;;;;;;;;;4974838;28;20433;-62
2024/01/11 02:50:24;;;;;;;148.20;69.22;;;;;;;;;;4974923;28;20070;-63
2024/01/11 02:52:49;;;;;;;149.10;71.95;;;;;;;;;;4974839;28;20065;-63
2024/01/11 02:55:17;;;;;;;145.32;69.70;;;;;;;;;;4989575;28;20031;-64
2024/01/11 02:57:42;;;;;;;144.85;70.07;;;;;;;;;;4957494;28;20105;-64
2024/01/11 03:00:07;;;;;;;142.45;71.43;;;;;;;;;;4974750;28;20117;-63
2024/01/11 03:02:34;;;;;;;139.27;69.82;;;;;;;;;;4974750;28;20031;-62
2024/01/11 03:04:59;;;;;;;141.40;71.45;;;;;;;;;;4975271;28;20031;-62
2024/01/11 03:07:25;;;;;;;146.15;71.70;;;;;;;;;;4957654;28;20035;-63
2024/01/11 03:09:50;;;;;;;143.02;72.18;;;;;;;;;;4974480;28;20047;-62
2024/01/11 03:12:15;;;;;;;147.15;70.53;;;;;;;;;;4974904;28;20077;-62
2024/01/11 03:14:41;;;;;;;148.95;74.28;;;;;;;;;;4975060;28;20050;-62
2024/01/11 03:17:06;;;;;;;195.15;99.65;;;;;;;;;;4973667;28;20054;-62
2024/01/11 03:19:32;;;;;;;189.35;104.15;;;;;;;;;;4974833;28;20061;-62
2024/01/11 03:21:57;;;;;;;173.82;93.40;;;;;;;;;;4957596;28;20382;-62
2024/01/11 03:24:23;;;;;;;169.77;88.68;;;;;;;;;;4974767;28;20031;-62
2024/01/11 03:26:56;;;;;;;156.30;82.70;;;;;;;;;;4974748;28;20046;-63
2024/01/11 03:29:21;;;;;;;153.88;78.80;;;;;;;;;;4957553;28;20069;-64
2024/01/11 03:31:47;;;;;;;148.13;78.38;;;;;;;;;;4975016;28;20034;-64
2024/01/11 03:34:13;;;;;;;146.20;75.13;;;;;;;;;;4974650;28;20034;-63
2024/01/11 03:36:38;;;;;;;139.00;67.68;;;;;;;;;;4974966;28;20418;-63
2024/01/11 03:39:03;;;;;;;141.60;71.05;;;;;;;;;;4974676;28;20030;-62
2024/01/11 03:41:29;;;;;;;140.50;70.40;;;;;;;;;;4957678;28;20023;-62
2024/01/11 03:43:54;;;;;;;148.07;71.38;;;;;;;;;;4957010;28;20466;-63
2024/01/11 03:46:20;;;;;;;142.18;75.35;;;;;;;;;;4974330;28;20031;-65
2024/01/11 03:48:46;;;;;;;157.23;76.82;;;;;;;;;;4957160;28;20062;-65
2024/01/11 03:51:11;;;;;;;151.65;75.93;;;;;;;;;;4989190;28;20073;-67
2024/01/11 03:53:37;;;;;;;151.65;79.40;;;;;;;;;;4974200;28;20027;-67
2024/01/11 03:56:02;;;;;;;149.60;78.80;;;;;;;;;;4974527;28;20023;-67
2024/01/11 03:58:27;;;;;;;153.63;77.75;;;;;;;;;;4974507;28;20086;-67
2024/01/11 04:00:53;;;;;;;158.57;80.55;;;;;;;;;;4974516;28;20023;-65
2024/01/11 04:03:24;;;;;;;154.13;78.18;;;;;;;;;;4977691;28;20037;-65
2024/01/11 04:05:49;;;;;;;141.52;74.43;;;;;;;;;;4977971;28;20035;-63
2024/01/11 04:08:15;;;;;;;146.32;74.97;;;;;;;;;;4977629;28;20118;-63
2024/01/11 04:10:41;;;;;;;153.07;74.68;;;;;;;;;;4977858;28;20105;-63
2024/01/11 04:13:06;;;;;;;147.00;71.97;;;;;;;;;;4976610;28;20027;-63
2024/01/11 04:15:32;;;;;;;142.32;69.78;;;;;;;;;;4977409;28;20470;-64
2024/01/11 04:17:57;;;;;;;129.63;66.45;;;;;;;;;;4977311;28;20066;-64
2024/01/11 04:20:24;;;;;;;145.68;71.72;;;;;;;;;;4977367;28;20525;-64
2024/01/11 04:22:49;;;;;;;138.73;71.07;;;;;;;;;;4977653;28;20027;-63
2024/01/11 04:25:15;;;;;;;148.55;72.55;;;;;;;;;;4977313;28;20402;-63
2024/01/11 04:27:40;;;;;;;142.32;73.90;;;;;;;;;;4977263;28;20038;-65
2024/01/11 04:30:06;;;;;;;154.82;79.30;;;;;;;;;;4977210;28;20034;-63
2024/01/11 04:32:31;;;;;;;157.27;79.65;;;;;;;;;;4977498;28;20125;-63
2024/01/11 04:34:58;;;;;;;154.32;80.32;;;;;;;;;;4992029;28;20030;-62
2024/01/11 04:37:23;;;;;;;157.70;82.28;;;;;;;;;;4991943;28;20031;-62
2024/01/11 04:39:48;;;;;;;160.70;83.20;;;;;;;;;;4977704;28;20125;-64
2024/01/11 04:42:14;;;;;;;153.15;79.95;;;;;;;;;;4976925;28;20027;-64
2024/01/11 04:44:39;;;;;;;147.07;75.78;;;;;;;;;;4977702;28;20043;-61
2024/01/11 04:47:05;;;;;;;149.75;78.70;;;;;;;;;;4977078;28;20042;-63
2024/01/11 04:49:44;;;;;;;150.43;76.78;;;;;;;;;;4977198;28;20101;-64
2024/01/11 04:52:09;;;;;;;144.75;76.38;;;;;;;;;;4977169;28;20031;-62
2024/01/11 04:54:35;;;;;;;122.05;61.75;;;;;;;;;;4958548;28;20126;-61
2024/01/11 04:57:00;;;;;;;145.02;77.18;;;;;;;;;;4976368;28;20058;-61
2024/01/11 04:59:26;;;;;;;148.25;78.28;;;;;;;;;;4991005;28;20031;-64
2024/01/11 05:01:51;;;;;;;148.25;75.03;;;;;;;;;;4991660;28;20033;-64
2024/01/11 05:04:17;;;;;;;143.60;72.55;;;;;;;;;;4975969;28;20455;-64
2024/01/11 05:06:42;;;;;;;138.35;74.43;;;;;;;;;;4975696;28;20504;-64
2024/01/11 05:09:08;;;;;;;137.30;71.55;;;;;;;;;;4975680;28;20057;-65
2024/01/11 05:11:33;;;;;;;133.73;69.00;;;;;;;;;;4958065;28;20031;-65
2024/01/11 05:13:58;;;;;;;143.43;74.28;;;;;;;;;;4975275;28;20479;-63
2024/01/11 05:16:30;;;;;;;166.07;86.63;;;;;;;;;;4990022;28;20035;-64
2024/01/11 05:18:56;;;;;;;130.43;68.63;;;;;;;;;;4941902;28;20027;-63
2024/01/11 05:21:21;;;;;;;128.80;66.13;;;;;;;;;;4989750;28;20560;-63
2024/01/11 05:23:47;;;;;;;148.38;76.20;;;;;;;;;;4974606;28;20077;-63
2024/01/11 05:26:13;;;;;;;154.35;78.22;;;;;;;;;;4975010;28;20090;-63
2024/01/11 05:28:38;;;;;;;148.55;78.93;;;;;;;;;;4975069;28;20019;-62
2024/01/11 05:31:10;;;;;;;153.18;79.97;;;;;;;;;;4990229;28;20470;-61
2024/01/11 05:33:36;;;;;;;158.88;85.03;;;;;;;;;;4976222;28;20026;-63
2024/01/11 05:36:02;;;;;;;160.63;83.78;;;;;;;;;;4976632;28;20344;-63
2024/01/11 05:38:27;;;;;;;152.10;77.05;;;;;;;;;;4990947;28;20027;-63
2024/01/11 05:40:53;;;;;;;149.52;76.75;;;;;;;;;;4975907;28;20446;-63
2024/01/11 05:43:18;;;;;;;147.80;79.88;;;;;;;;;;4976459;28;20027;-63
2024/01/11 05:45:43;;;;;;;146.80;78.88;;;;;;;;;;4976108;28;20031;-63
2024/01/11 05:48:10;;;;;;;156.48;77.97;;;;;;;;;;4990999;28;20074;-64
2024/01/11 05:50:35;;;;;;;147.25;79.18;;;;;;;;;;4976046;28;20026;-63
2024/01/11 05:53:01;;;;;;;152.75;79.53;;;;;;;;;;4976177;28;20517;-63
2024/01/11 05:55:26;;;;;;;151.48;77.65;;;;;;;;;;4975973;28;20077;-63
2024/01/11 05:57:51;;;;;;;153.57;78.20;;;;;;;;;;4975634;28;20368;-64
2024/01/11 06:00:17;;;;;;;153.25;80.47;;;;;;;;;;4976304;28;20371;-63
2024/01/11 06:02:43;;;;;;;152.43;78.03;;;;;;;;;;4976123;28;20023;-64
2024/01/11 06:05:09;;;;;;;152.98;77.40;;;;;;;;;;4958815;28;20104;-63
2024/01/11 06:07:34;;;;;;;125.60;61.50;;;;;;;;;;4990431;28;20030;-64
2024/01/11 06:10:02;;;;;;;153.23;78.80;;;;;;;;;;4989732;28;20109;-64
2024/01/11 06:12:28;;;;;;;121.85;63.45;;;;;;;;;;4974928;28;20103;-64
2024/01/11 06:14:54;;;;;;;152.23;78.95;;;;;;;;;;4975290;28;20471;-63
2024/01/11 06:17:19;;;;;;;151.98;77.30;;;;;;;;;;4958308;28;20050;-63
2024/01/11 06:19:44;;;;;;;163.15;84.78;;;;;;;;;;4975538;28;20038;-63
2024/01/11 06:22:10;;;;;;;159.55;81.55;;;;;;;;;;4975282;28;20018;-63
2024/01/11 06:24:35;;;;;;;149.98;73.20;;;;;;;;;;4974558;28;20364;-63
2024/01/11 06:27:01;;;;;;;153.88;75.78;;;;;;;;;;4974013;28;20061;-63
2024/01/11 06:29:26;;;;;;;147.05;76.10;;;;;;;;;;4973268;28;20498;-63
2024/01/11 06:31:51;;;;;;;144.90;78.47;;;;;;;;;;4973296;28;20035;-63
2024/01/11 06:34:18;;;;;;;144.88;77.18;;;;;;;;;;4973342;28;20058;-64
2024/01/11 06:36:44;;;;;;;159.43;81.10;;;;;;;;;;4955988;28;20437;-63
2024/01/11 06:39:10;;;;;;;178.82;89.00;;;;;;;;;;4973894;28;20034;-64
2024/01/11 06:41:35;;;;;;;244.45;106.93;;;;;;;;;;4974751;28;20031;-63
2024/01/11 06:44:00;;;;;;;203.45;97.85;;;;;;;;;;4975216;28;20193;-64
2024/01/11 06:46:26;;;;;;;205.70;96.05;;;;;;;;;;4975150;28;20023;-64
2024/01/11 06:48:52;;;;;;;195.45;94.63;;;;;;;;;;4975151;28;20525;-64
2024/01/11 06:51:21;;;;;;;181.10;86.22;;;;;;;;;;4989824;28;20101;-63
2024/01/11 06:53:46;;;;;;;147.00;75.57;;;;;;;;;;4975288;28;20030;-63
2024/01/11 06:56:21;;;;;;;149.68;75.80;;;;;;;;;;4989769;28;20027;-63
2024/01/11 06:58:46;;;;;;;151.15;74.57;;;;;;;;;;4974750;28;20055;-63
2024/01/11 07:01:12;;;;;;;144.85;73.15;;;;;;;;;;4974742;28;20545;-63
2024/01/11 07:03:37;;;;;;;169.80;79.57;;;;;;;;;;4989732;28;20033;-63
2024/01/11 07:06:03;;;;;;;167.23;78.20;;;;;;;;;;4957535;28;20458;-63
2024/01/11 07:08:29;;;;;;;166.75;76.80;;;;;;;;;;4975260;28;20118;-64
2024/01/11 07:10:54;;;;;;;149.73;74.53;;;;;;;;;;4974666;28;20062;-63
2024/01/11 07:13:20;;;;;;;138.82;70.18;;;;;;;;;;4941309;28;20542;-63
2024/01/11 07:15:45;;;;;;;133.20;71.60;;;;;;;;;;4974527;28;20035;-63
2024/01/11 07:18:10;;;;;;;113.00;61.22;;;;;;;;;;4974446;28;20126;-63
2024/01/11 07:20:36;;;;;;;108.20;55.72;;;;;;;;;;4974839;28;20031;-63
2024/01/11 07:23:01;;;;;;;183.20;76.25;;;;;;;;;;4957572;28;20062;-64
2024/01/11 07:25:26;;;;;;;168.07;77.28;;;;;;;;;;4974812;28;20027;-63
2024/01/11 07:27:52;;;;;;;140.32;63.05;;;;;;;;;;4974521;28;20022;-63
2024/01/11 07:30:20;;;;;;;133.48;58.85;;;;;;;;;;4974345;28;20039;-63
2024/01/11 07:32:46;;;;;;;124.45;55.65;;;;;;;;;;4989431;28;20023;-64
2024/01/11 07:35:12;;;;;;;116.20;56.92;;;;;;;;;;4974371;28;20511;-64
2024/01/11 07:37:39;;;;;;;114.30;55.78;;;;;;;;;;5040302;23;20033;-63
2024/01/11 07:40:09;;;;;;;110.30;53.28;;;;;;;;;;5037265;28;20462;-64
2024/01/11 07:42:35;;;;;;;112.85;54.22;;;;;;;;;;5037554;28;20021;-64
2024/01/11 07:45:00;;;;;;;112.68;58.17;;;;;;;;;;5036921;28;20038;-64
2024/01/11 07:47:26;;;;;;;113.07;57.90;;;;;;;;;;5037418;28;20136;-64
2024/01/11 07:49:52;;;;;;;119.82;61.05;;;;;;;;;;5037381;28;20044;-63
2024/01/11 07:52:17;;;;;;;118.78;59.55;;;;;;;;;;5036788;28;20541;-64
2024/01/11 07:54:43;;;;;;;102.65;54.10;;;;;;;;;;5037266;28;20088;-63
2024/01/11 07:57:08;;;;;;;107.22;51.85;;;;;;;;;;5036953;28;20044;-64
2024/01/11 07:59:35;;;;;;;107.53;54.55;;;;;;;;;;5036668;28;20030;-63
2024/01/11 08:02:01;;;;;;;107.07;52.90;;;;;;;;;;5036892;28;20033;-63
2024/01/11 08:04:26;;;;;;;96.93;51.28;;;;;;;;;;5036870;28;20025;-64
2024/01/11 08:06:52;;;;;;;98.95;49.80;;;;;;;;;;5036797;28;20366;-63
2024/01/11 08:09:18;;;;;;;92.90;48.70;;;;;;;;;;5037025;28;20029;-63
2024/01/11 08:11:43;;;;;;;100.28;51.95;;;;;;;;;;5018630;28;20465;-63
2024/01/11 08:14:09;;;;;;;95.85;50.33;;;;;;;;;;5018555;28;20022;-64
2024/01/11 08:16:34;;;;;;;106.53;52.60;;;;;;;;;;5019015;28;20036;-63
2024/01/11 08:19:00;;;;;;;105.10;52.30;;;;;;;;;;5036276;28;20029;-63
2024/01/11 08:21:26;;;;;;;96.82;49.65;;;;;;;;;;5036263;28;20021;-63
2024/01/11 08:23:51;;;;;;;93.15;47.35;;;;;;;;;;5036198;28;20021;-63
2024/01/11 08:26:21;;;;;;;99.28;51.53;;;;;;;;;;5036119;28;20029;-64
2024/01/11 08:28:48;;;;;;;102.50;52.88;;;;;;;;;;5018374;28;20030;-64
2024/01/11 08:31:13;;;;;;;102.22;53.08;;;;;;;;;;5036577;28;20052;-64
2024/01/11 08:33:39;;;;;;;94.00;49.20;;;;;;;;;;5036178;28;20049;-63
2024/01/11 08:36:06;;;;;;;99.25;50.13;;;;;;;;;;5036232;28;20025;-63
2024/01/11 08:38:32;;;;;;;99.30;49.63;;;;;;;;;;5035921;28;20042;-62
2024/01/11 08:40:58;;;;;;;96.78;49.17;;;;;;;;;;5040072;23;20092;-61
2024/01/11 08:43:24;;;;;;;98.43;49.53;;;;;;;;;;5050377;23;20093;-63
2024/01/11 08:45:51;;;;;;;99.10;49.22;;;;;;;;;;5049492;23;20057;-63
2024/01/11 08:48:17;;;;;;;91.30;47.95;;;;;;;;;;5050853;23;20032;-60
2024/01/11 08:50:42;;;;;;;91.63;44.83;;;;;;;;;;5034360;28;20046;-61
2024/01/11 08:53:08;;;;;;;78.28;40.10;;;;;;;;;;5035663;28;20487;-61
2024/01/11 08:55:33;;;;;;;77.40;39.00;;;;;;;;;;5035788;28;20030;-61
2024/01/11 08:57:59;;;;;;;79.40;40.05;;;;;;;;;;5035566;28;20034;-61
2024/01/11 09:00:24;;;;;;;77.95;38.28;;;;;;;;;;5035520;28;20076;-59
2024/01/11 09:02:50;;;;;;;72.22;33.55;;;;;;;;;;5035748;28;20385;-61
2024/01/11 09:05:16;;;;;;;69.35;35.67;;;;;;;;;;5017983;28;20136;-61
2024/01/11 09:07:42;;;;;;;74.47;34.63;;;;;;;;;;5035640;28;20041;-62
2024/01/11 09:10:08;;;;;;;75.57;34.85;;;;;;;;;;5035613;28;20078;-61
2024/01/11 09:12:34;;;;;;;71.07;34.55;;;;;;;;;;5017898;28;20033;-61
2024/01/11 09:15:00;;;;;;;74.93;37.17;;;;;;;;;;5035738;28;20036;-61
2024/01/11 09:17:25;;;;;;;70.68;34.47;;;;;;;;;;5035462;28;20453;-61
2024/01/11 09:19:51;;;;;;;78.22;35.67;;;;;;;;;;5035426;28;20022;-61
2024/01/11 09:22:17;;;;;;;68.82;33.80;;;;;;;;;;5017324;28;20029;-61
2024/01/11 09:24:42;;;;;;;70.70;34.95;;;;;;;;;;5035622;28;20041;-61
2024/01/11 09:27:07;;;;;;;70.65;35.58;;;;;;;;;;5034978;28;20029;-62
2024/01/11 09:29:33;;;;;;;65.32;34.17;;;;;;;;;;5035253;28;20025;-62
2024/01/11 09:31:59;;;;;;;70.55;34.03;;;;;;;;;;5035176;28;20037;-62
2024/01/11 09:34:24;;;;;;;69.00;34.90;;;;;;;;;;5017073;28;20514;-62
2024/01/11 09:36:50;;;;;;;67.43;33.03;;;;;;;;;;5034842;28;20053;-62
2024/01/11 09:39:15;;;;;;;64.35;33.38;;;;;;;;;;5017317;28;20037;-62
2024/01/11 09:41:47;;;;;;;70.85;35.50;;;;;;;;;;5017067;28;20366;-61
2024/01/11 09:44:13;;;;;;;64.28;33.65;;;;;;;;;;5034992;28;20067;-63
2024/01/11 09:46:39;;;;;;;63.60;31.27;;;;;;;;;;5034517;28;20037;-62
2024/01/11 09:49:04;;;;;;;56.72;27.73;;;;;;;;;;5034443;28;20489;-62
2024/01/11 09:51:30;;;;;;;56.25;28.35;;;;;;;;;;5034854;28;20029;-62
2024/01/11 09:53:58;;;;;;;51.13;25.30;;;;;;;;;;5017095;28;20044;-62
2024/01/11 09:56:24;;;;;;;52.38;25.58;;;;;;;;;;5034775;28;20038;-62
2024/01/11 09:58:50;;;;;;;49.63;23.42;;;;;;;;;;5016179;28;20036;-62
2024/01/11 10:01:15;;;;;;;48.78;23.52;;;;;;;;;;5034546;28;20018;-62
2024/01/11 10:03:46;;;;;;;48.15;23.15;;;;;;;;;;5034878;28;20040;-62
2024/01/11 10:06:12;;;;;;;44.63;22.55;;;;;;;;;;5034300;28;20457;-62
2024/01/11 10:08:37;;;;;;;45.05;23.98;;;;;;;;;;5034244;28;20030;-62
2024/01/11 10:11:03;;;;;;;42.65;22.83;;;;;;;;;;5016619;28;20393;-62
2024/01/11 10:13:29;;;;;;;42.00;22.42;;;;;;;;;;5034151;28;20029;-62
2024/01/11 10:16:04;;;;;;;40.20;20.80;;;;;;;;;;5034011;28;20033;-62
2024/01/11 10:18:30;;;;;;;42.78;21.27;;;;;;;;;;5034351;28;20021;-62
2024/01/11 10:20:56;;;;;;;42.20;20.98;;;;;;;;;;5000765;28;20017;-61
2024/01/11 10:23:22;;;;;;;37.85;19.85;;;;;;;;;;5016322;28;20124;-62
2024/01/11 10:25:48;;;;;;;39.45;20.95;;;;;;;;;;5016388;28;20445;-62
2024/01/11 10:28:14;;;;;;;37.65;19.80;;;;;;;;;;5033974;28;20389;-62
2024/01/11 10:30:40;;;;;;;39.47;19.73;;;;;;;;;;5034170;28;20033;-61
2024/01/11 10:33:07;;;;;;;37.00;17.73;;;;;;;;;;5033863;28;20038;-61
2024/01/11 10:35:32;;;;;;;35.38;18.20;;;;;;;;;;5033749;28;20038;-62
2024/01/11 10:37:58;;;;;;;38.03;18.70;;;;;;;;;;5034344;28;20020;-62
2024/01/11 10:40:25;;;;;;;33.17;17.45;;;;;;;;;;5034027;28;20106;-62
2024/01/11 10:42:54;;;;;;;34.97;18.10;;;;;;;;;;5033742;28;20029;-62
2024/01/11 10:45:19;;;;;;;35.50;17.27;;;;;;;;;;5033669;28;20040;-59
2024/01/11 10:47:45;;;;;;;37.47;18.52;;;;;;;;;;5033907;28;20037;-59
2024/01/11 10:50:11;;;;;;;39.83;18.48;;;;;;;;;;5015728;28;20045;-59
2024/01/11 10:52:42;;;;;;;32.00;16.00;;;;;;;;;;5015919;28;20120;-59
2024/01/11 10:55:07;;;;;;;;;;;;;;;;;;5034173;28;20033;-59
2024/01/11 10:57:34;;;;;;;38.40;18.23;;;;;;;;;;5033819;28;19915;-59
2024/01/11 11:00:03;;;;;;;30.55;15.55;;;;;;;;;;5034062;28;20037;-59
2024/01/11 11:02:29;;;;;;;34.83;17.65;;;;;;;;;;5033477;28;20029;-59
2024/01/11 11:04:55;;;;;;;32.65;16.65;;;;;;;;;;5034037;28;20044;-58
2024/01/11 11:07:21;;;;;;;33.60;16.15;;;;;;;;;;5033745;28;20461;-58
2024/01/11 11:09:49;;;;;;;31.98;16.98;;;;;;;;;;5033425;28;20041;-58
2024/01/11 11:12:16;;;;;;;35.85;16.00;;;;;;;;;;5037376;28;20032;-58
2024/01/11 11:14:43;;;;;;;24.25;12.75;;;;;;;;;;5037406;28;20458;-58
2024/01/11 11:17:09;;;;;;;31.95;17.40;;;;;;;;;;5037446;28;20079;-58
2024/01/11 11:19:34;;;;;;;31.35;16.33;;;;;;;;;;5037687;28;20025;-59
2024/01/11 11:22:03;;;;;;;32.65;16.48;;;;;;;;;;5019994;28;20040;-59
2024/01/11 11:24:28;;;;;;;35.47;17.25;;;;;;;;;;5037580;28;20072;-59
2024/01/11 11:26:57;;;;;;;33.90;15.48;;;;;;;;;;5037858;28;20033;-58
2024/01/11 11:29:22;;;;;;;31.05;15.45;;;;;;;;;;5037528;28;20476;-61
2024/01/11 11:31:53;;;;;;;26.83;13.35;;;;;;;;;;5037223;28;20029;-61
2024/01/11 11:34:19;;;;;;;34.63;15.75;;;;;;;;;;5037365;28;20033;-61
2024/01/11 11:36:46;;;;;;;31.30;15.77;;;;;;;;;;5037137;28;20431;-61
2024/01/11 11:39:11;;;;;;;35.50;16.88;;;;;;;;;;5037096;28;20448;-61
2024/01/11 11:41:38;;;;;;;36.60;15.88;;;;;;;;;;5037009;28;20049;-61
2024/01/11 11:44:04;;;;;;;24.92;12.00;;;;;;;;;;5036974;28;20032;-62
2024/01/11 11:46:31;;;;;;;34.72;16.13;;;;;;;;;;5037211;28;20116;-62
2024/01/11 11:48:56;;;;;;;34.80;17.88;;;;;;;;;;5036913;28;20481;-61
2024/01/11 11:51:23;;;;;;;36.92;18.25;;;;;;;;;;5036862;28;20018;-62
2024/01/11 11:53:49;;;;;;;27.65;13.48;;;;;;;;;;5036723;28;20021;-61
2024/01/11 11:56:16;;;;;;;36.17;17.63;;;;;;;;;;5036768;28;20137;-61
2024/01/11 11:58:45;;;;;;;35.10;17.48;;;;;;;;;;5036970;28;20036;-61
2024/01/11 12:01:10;;;;;;;31.00;16.60;;;;;;;;;;5036625;28;20024;-61
2024/01/11 12:03:37;;;;;;;32.13;15.30;;;;;;;;;;5036592;28;20384;-61
2024/01/11 12:06:03;;;;;;;31.70;15.45;;;;;;;;;;5036560;28;20037;-61
2024/01/11 12:08:29;;;;;;;34.63;17.23;;;;;;;;;;5018718;28;20033;-61
2024/01/11 12:10:54;;;;;;;31.15;15.18;;;;;;;;;;5018743;28;20048;-61
2024/01/11 12:13:20;;;;;;;36.60;16.88;;;;;;;;;;5036431;28;20034;-61
2024/01/11 12:15:45;;;;;;;28.35;16.08;;;;;;;;;;5018491;28;20087;-61
2024/01/11 12:18:13;;;;;;;35.88;16.58;;;;;;;;;;5019006;28;20026;-62
2024/01/11 12:20:38;;;;;;;31.17;14.75;;;;;;;;;;5036576;28;20053;-62
2024/01/11 12:23:04;;;;;;;32.72;15.55;;;;;;;;;;5035512;28;20057;-61
2024/01/11 12:25:30;;;;;;;35.10;17.08;;;;;;;;;;5036216;28;20099;-61
2024/01/11 12:27:55;;;;;;;33.47;14.38;;;;;;;;;;5036115;28;20461;-61
2024/01/11 12:30:27;;;;;;;31.83;15.45;;;;;;;;;;5036054;28;20028;-61
2024/01/11 12:32:56;;;;;;;35.15;15.98;;;;;;;;;;5036099;28;20037;-61
2024/01/11 12:35:21;;;;;;;36.13;17.48;;;;;;;;;;5030973;28;20029;-61
2024/01/11 12:38:00;;;;;;;37.80;16.52;;;;;;;;;;5018196;28;20504;-62
2024/01/11 12:40:30;;;;;;;30.20;14.05;;;;;;;;;;5036183;28;20087;-59
2024/01/11 12:42:56;;;;;;;36.13;18.23;;;;;;;;;;5036450;28;20033;-59
2024/01/11 12:45:22;;;;;;;25.88;12.13;;;;;;;;;;5036142;28;20159;-59
2024/01/11 12:47:48;;;;;;;26.38;12.70;;;;;;;;;;5035821;28;20029;-59
2024/01/11 12:50:13;;;;;;;34.58;15.07;;;;;;;;;;5035647;28;20536;-59
2024/01/11 12:52:39;;;;;;;35.13;16.92;;;;;;;;;;5035980;28;20061;-59
2024/01/11 12:55:05;;;;;;;29.48;14.88;;;;;;;;;;5035643;28;20022;-58
2024/01/11 12:57:30;;;;;;;30.02;14.48;;;;;;;;;;5035927;28;20492;-59
2024/01/11 13:00:09;;;;;;;33.22;16.90;;;;;;;;;;5017955;28;20057;-59
2024/01/11 13:02:35;;;;;;;35.17;16.88;;;;;;;;;;5017780;28;20033;-59
2024/01/11 13:05:02;;;;;;;36.35;18.02;;;;;;;;;;5035771;28;20041;-59
2024/01/11 13:07:28;;;;;;;32.88;17.83;;;;;;;;;;5035449;28;20465;-59
2024/01/11 13:09:53;;;;;;;43.22;19.85;;;;;;;;;;5035401;28;20076;-59
2024/01/11 13:12:20;;;;;;;36.90;18.98;;;;;;;;;;5017597;28;20052;-59
2024/01/11 13:14:47;;;;;;;32.88;15.85;;;;;;;;;;5035224;28;20060;-59
2024/01/11 13:17:12;;;;;;;38.45;18.58;;;;;;;;;;5035400;28;20030;-59
2024/01/11 13:19:38;;;;;;;31.67;16.77;;;;;;;;;;5035489;28;20025;-59
2024/01/11 13:22:03;;;;;;;34.15;17.48;;;;;;;;;;5017506;28;20444;-62
2024/01/11 13:24:29;;;;;;;38.08;18.40;;;;;;;;;;5017772;28;20036;-62
2024/01/11 13:26:55;;;;;;;32.25;16.42;;;;;;;;;;5035025;28;20396;-62
2024/01/11 13:29:24;;;;;;;37.33;19.35;;;;;;;;;;5017456;28;20048;-62
2024/01/11 13:31:50;;;;;;;33.90;18.40;;;;;;;;;;5035554;28;20097;-61
2024/01/11 13:34:15;;;;;;;33.85;15.93;;;;;;;;;;5033766;28;20191;-62
2024/01/11 13:36:42;;;;;;;39.22;19.90;;;;;;;;;;5035200;28;20025;-61
2024/01/11 13:39:08;;;;;;;38.80;20.33;;;;;;;;;;5035319;28;20040;-62
2024/01/11 13:41:34;;;;;;;40.08;21.27;;;;;;;;;;5017014;28;20034;-61
2024/01/11 13:44:01;;;;;;;38.05;19.13;;;;;;;;;;5034752;28;20032;-62
2024/01/11 13:46:26;;;;;;;41.55;19.23;;;;;;;;;;5035206;28;20431;-62
2024/01/11 13:48:52;;;;;;;39.15;20.25;;;;;;;;;;5034447;28;20038;-61
2024/01/11 13:51:24;;;;;;;37.25;17.77;;;;;;;;;;5034567;28;20518;-62
2024/01/11 13:53:49;;;;;;;38.88;20.65;;;;;;;;;;5034816;28;20057;-60
2024/01/11 13:56:14;;;;;;;39.00;19.17;;;;;;;;;;5034678;28;20080;-59
2024/01/11 13:58:40;;;;;;;37.47;20.55;;;;;;;;;;5034425;28;20052;-59
2024/01/11 14:01:07;;;;;;;39.95;20.90;;;;;;;;;;5017083;28;20079;-59
2024/01/11 14:03:33;;;;;;;38.78;18.88;;;;;;;;;;5034281;28;20036;-59